sensor_id;sensor_type;location;lat;lon;timestamp;P1;durP1;ratioP1;P2;durP2;ratioP2
9100;SDS011;4586;52.518;13.486;2022-07-29T00:00:26;1.52;;;1.42;;
9100;SDS011;4586;52.518;13.486;2022-07-29T00:04:27;1.40;;;1.27;;
9100;SDS011;4586;52.518;13.486;2022-07-29T00:08:28;2.03;;;1.35;;
9100;SDS011;4586;52.518;13.486;2022-07-29T00:12:29;2.55;;;1.48;;
9100;SDS011;4586;52.518;13.486;2022-07-29T00:16:30;1.65;;;1.52;;
9100;SDS011;4586;52.518;13.486;2022-07-29T00:20:31;5.28;;;1.67;;
9100;SDS011;4586;52.518;13.486;2022-07-29T00:24:32;1.90;;;1.38;;
9100;SDS011;4586;52.518;13.486;2022-07-29T00:32:35;3.78;;;1.27;;
9100;SDS011;4586;52.518;13.486;2022-07-29T00:36:36;3.08;;;1.55;;
9100;SDS011;4586;52.518;13.486;2022-07-29T00:40:38;3.08;;;1.58;;
9100;SDS011;4586;52.518;13.486;2022-07-29T00:44:39;1.88;;;1.40;;
9100;SDS011;4586;52.518;13.486;2022-07-29T00:48:42;2.00;;;1.50;;
9100;SDS011;4586;52.518;13.486;2022-07-29T00:52:43;2.17;;;1.50;;
9100;SDS011;4586;52.518;13.486;2022-07-29T00:56:44;2.75;;;1.42;;
9100;SDS011;4586;52.518;13.486;2022-07-29T01:00:45;1.60;;;1.42;;
9100;SDS011;4586;52.518;13.486;2022-07-29T01:04:46;2.88;;;1.17;;
9100;SDS011;4586;52.518;13.486;2022-07-29T01:08:47;2.47;;;1.52;;
9100;SDS011;4586;52.518;13.486;2022-07-29T01:12:49;1.85;;;1.23;;
9100;SDS011;4586;52.518;13.486;2022-07-29T01:21:21;1.20;;;1.10;;
9100;SDS011;4586;52.518;13.486;2022-07-29T01:25:30;2.92;;;1.40;;
9100;SDS011;4586;52.518;13.486;2022-07-29T01:29:35;2.40;;;1.13;;
9100;SDS011;4586;52.518;13.486;2022-07-29T01:33:38;1.85;;;1.67;;
9100;SDS011;4586;52.518;13.486;2022-07-29T01:37:59;2.58;;;1.45;;
9100;SDS011;4586;52.518;13.486;2022-07-29T01:46:11;3.30;;;1.45;;
9100;SDS011;4586;52.518;13.486;2022-07-29T01:50:14;1.90;;;1.40;;
9100;SDS011;4586;52.518;13.486;2022-07-29T01:58:17;3.60;;;1.42;;
9100;SDS011;4586;52.518;13.486;2022-07-29T02:02:19;3.33;;;1.50;;
9100;SDS011;4586;52.518;13.486;2022-07-29T02:06:21;2.53;;;1.17;;
9100;SDS011;4586;52.518;13.486;2022-07-29T02:10:23;3.10;;;1.40;;
9100;SDS011;4586;52.518;13.486;2022-07-29T02:14:26;2.83;;;1.58;;
9100;SDS011;4586;52.518;13.486;2022-07-29T02:18:29;4.40;;;1.80;;
9100;SDS011;4586;52.518;13.486;2022-07-29T02:22:31;1.50;;;1.25;;
9100;SDS011;4586;52.518;13.486;2022-07-29T02:26:34;1.30;;;1.20;;
9100;SDS011;4586;52.518;13.486;2022-07-29T02:30:36;2.10;;;1.45;;
9100;SDS011;4586;52.518;13.486;2022-07-29T02:34:39;2.15;;;1.38;;
9100;SDS011;4586;52.518;13.486;2022-07-29T02:38:42;1.98;;;1.10;;
9100;SDS011;4586;52.518;13.486;2022-07-29T02:42:44;2.30;;;1.27;;
9100;SDS011;4586;52.518;13.486;2022-07-29T02:46:58;1.63;;;1.30;;
9100;SDS011;4586;52.518;13.486;2022-07-29T02:51:23;2.20;;;1.38;;
9100;SDS011;4586;52.518;13.486;2022-07-29T02:55:32;1.27;;;1.17;;
9100;SDS011;4586;52.518;13.486;2022-07-29T02:59:34;3.58;;;1.50;;
9100;SDS011;4586;52.518;13.486;2022-07-29T03:03:37;1.90;;;1.52;;
9100;SDS011;4586;52.518;13.486;2022-07-29T03:07:39;2.58;;;1.30;;
9100;SDS011;4586;52.518;13.486;2022-07-29T03:11:41;1.90;;;1.20;;
9100;SDS011;4586;52.518;13.486;2022-07-29T03:15:43;1.42;;;1.17;;
9100;SDS011;4586;52.518;13.486;2022-07-29T03:19:44;3.22;;;1.40;;
9100;SDS011;4586;52.518;13.486;2022-07-29T03:23:46;2.00;;;1.35;;
9100;SDS011;4586;52.518;13.486;2022-07-29T03:27:47;1.02;;;0.95;;
9100;SDS011;4586;52.518;13.486;2022-07-29T03:31:48;2.58;;;0.93;;
9100;SDS011;4586;52.518;13.486;2022-07-29T03:35:49;2.35;;;1.40;;
9100;SDS011;4586;52.518;13.486;2022-07-29T03:39:50;2.78;;;1.55;;
9100;SDS011;4586;52.518;13.486;2022-07-29T03:43:51;1.50;;;1.30;;
9100;SDS011;4586;52.518;13.486;2022-07-29T03:47:55;1.35;;;0.90;;
9100;SDS011;4586;52.518;13.486;2022-07-29T03:51:57;2.78;;;1.08;;
9100;SDS011;4586;52.518;13.486;2022-07-29T03:55:59;1.63;;;1.33;;
9100;SDS011;4586;52.518;13.486;2022-07-29T04:00:00;1.75;;;1.40;;
9100;SDS011;4586;52.518;13.486;2022-07-29T04:04:04;2.10;;;1.30;;
9100;SDS011;4586;52.518;13.486;2022-07-29T04:08:05;3.80;;;1.40;;
9100;SDS011;4586;52.518;13.486;2022-07-29T04:12:06;1.80;;;1.23;;
9100;SDS011;4586;52.518;13.486;2022-07-29T04:16:07;2.60;;;1.10;;
9100;SDS011;4586;52.518;13.486;2022-07-29T04:20:08;1.38;;;1.27;;
9100;SDS011;4586;52.518;13.486;2022-07-29T04:24:09;1.60;;;1.38;;
9100;SDS011;4586;52.518;13.486;2022-07-29T04:28:10;1.38;;;1.20;;
9100;SDS011;4586;52.518;13.486;2022-07-29T04:32:11;2.42;;;1.42;;
9100;SDS011;4586;52.518;13.486;2022-07-29T04:36:12;1.85;;;1.30;;
9100;SDS011;4586;52.518;13.486;2022-07-29T04:40:13;2.65;;;1.50;;
9100;SDS011;4586;52.518;13.486;2022-07-29T04:44:14;2.50;;;1.30;;
9100;SDS011;4586;52.518;13.486;2022-07-29T04:48:15;1.17;;;1.08;;
9100;SDS011;4586;52.518;13.486;2022-07-29T04:52:16;1.30;;;1.20;;
9100;SDS011;4586;52.518;13.486;2022-07-29T04:56:17;2.47;;;1.73;;
9100;SDS011;4586;52.518;13.486;2022-07-29T05:00:18;1.70;;;1.25;;
9100;SDS011;4586;52.518;13.486;2022-07-29T05:04:19;1.42;;;1.17;;
9100;SDS011;4586;52.518;13.486;2022-07-29T05:08:20;1.30;;;1.17;;
9100;SDS011;4586;52.518;13.486;2022-07-29T05:12:21;3.17;;;1.33;;
9100;SDS011;4586;52.518;13.486;2022-07-29T05:16:22;1.20;;;1.10;;
9100;SDS011;4586;52.518;13.486;2022-07-29T05:20:23;2.10;;;1.40;;
9100;SDS011;4586;52.518;13.486;2022-07-29T05:24:24;2.05;;;1.30;;
9100;SDS011;4586;52.518;13.486;2022-07-29T05:28:25;1.55;;;1.40;;
9100;SDS011;4586;52.518;13.486;2022-07-29T05:32:26;2.20;;;1.50;;
9100;SDS011;4586;52.518;13.486;2022-07-29T05:36:27;1.33;;;1.10;;
9100;SDS011;4586;52.518;13.486;2022-07-29T05:40:28;1.30;;;1.10;;
9100;SDS011;4586;52.518;13.486;2022-07-29T05:44:29;1.00;;;0.95;;
9100;SDS011;4586;52.518;13.486;2022-07-29T05:48:30;2.30;;;1.30;;
9100;SDS011;4586;52.518;13.486;2022-07-29T05:52:31;1.23;;;1.10;;
9100;SDS011;4586;52.518;13.486;2022-07-29T05:56:32;1.45;;;1.35;;
9100;SDS011;4586;52.518;13.486;2022-07-29T06:00:33;1.00;;;1.00;;
9100;SDS011;4586;52.518;13.486;2022-07-29T06:04:34;2.20;;;1.30;;
9100;SDS011;4586;52.518;13.486;2022-07-29T06:08:35;3.03;;;1.35;;
9100;SDS011;4586;52.518;13.486;2022-07-29T06:12:36;4.10;;;1.30;;
9100;SDS011;4586;52.518;13.486;2022-07-29T06:16:37;2.40;;;1.38;;
9100;SDS011;4586;52.518;13.486;2022-07-29T06:20:38;1.45;;;1.15;;
9100;SDS011;4586;52.518;13.486;2022-07-29T06:24:39;2.17;;;1.15;;
9100;SDS011;4586;52.518;13.486;2022-07-29T06:28:40;2.20;;;1.10;;
9100;SDS011;4586;52.518;13.486;2022-07-29T06:32:41;0.93;;;0.90;;
9100;SDS011;4586;52.518;13.486;2022-07-29T06:36:42;3.30;;;1.20;;
9100;SDS011;4586;52.518;13.486;2022-07-29T06:40:43;1.70;;;1.25;;
9100;SDS011;4586;52.518;13.486;2022-07-29T06:44:44;1.70;;;1.15;;
9100;SDS011;4586;52.518;13.486;2022-07-29T06:48:45;1.75;;;1.00;;
9100;SDS011;4586;52.518;13.486;2022-07-29T06:52:47;1.25;;;1.15;;
9100;SDS011;4586;52.518;13.486;2022-07-29T06:56:48;1.98;;;1.17;;
9100;SDS011;4586;52.518;13.486;2022-07-29T07:00:49;1.05;;;0.95;;
9100;SDS011;4586;52.518;13.486;2022-07-29T07:04:50;1.48;;;1.13;;
9100;SDS011;4586;52.518;13.486;2022-07-29T07:08:51;1.05;;;1.02;;
9100;SDS011;4586;52.518;13.486;2022-07-29T07:12:52;0.90;;;0.90;;
9100;SDS011;4586;52.518;13.486;2022-07-29T07:16:53;1.23;;;1.10;;
9100;SDS011;4586;52.518;13.486;2022-07-29T07:20:54;1.20;;;1.10;;
9100;SDS011;4586;52.518;13.486;2022-07-29T07:24:55;3.35;;;1.35;;
9100;SDS011;4586;52.518;13.486;2022-07-29T07:28:56;1.58;;;1.15;;
9100;SDS011;4586;52.518;13.486;2022-07-29T07:32:57;2.08;;;1.20;;
9100;SDS011;4586;52.518;13.486;2022-07-29T07:36:58;1.27;;;1.17;;
9100;SDS011;4586;52.518;13.486;2022-07-29T07:40:59;2.00;;;1.10;;
9100;SDS011;4586;52.518;13.486;2022-07-29T07:45:00;1.27;;;1.17;;
9100;SDS011;4586;52.518;13.486;2022-07-29T07:49:01;3.47;;;1.02;;
9100;SDS011;4586;52.518;13.486;2022-07-29T07:53:02;1.13;;;0.90;;
9100;SDS011;4586;52.518;13.486;2022-07-29T07:57:03;2.58;;;1.13;;
9100;SDS011;4586;52.518;13.486;2022-07-29T08:01:04;1.70;;;1.10;;
9100;SDS011;4586;52.518;13.486;2022-07-29T08:05:06;1.45;;;0.93;;
9100;SDS011;4586;52.518;13.486;2022-07-29T08:09:07;2.25;;;1.00;;
9100;SDS011;4586;52.518;13.486;2022-07-29T08:13:09;2.55;;;1.00;;
9100;SDS011;4586;52.518;13.486;2022-07-29T08:17:10;1.25;;;1.00;;
9100;SDS011;4586;52.518;13.486;2022-07-29T08:21:11;1.20;;;1.10;;
9100;SDS011;4586;52.518;13.486;2022-07-29T08:25:12;1.23;;;0.88;;
9100;SDS011;4586;52.518;13.486;2022-07-29T08:29:13;1.88;;;1.55;;
9100;SDS011;4586;52.518;13.486;2022-07-29T08:33:14;6.13;;;1.48;;
9100;SDS011;4586;52.518;13.486;2022-07-29T08:37:15;1.85;;;0.80;;
9100;SDS011;4586;52.518;13.486;2022-07-29T08:41:17;1.40;;;1.10;;
9100;SDS011;4586;52.518;13.486;2022-07-29T08:45:18;1.30;;;0.93;;
9100;SDS011;4586;52.518;13.486;2022-07-29T08:49:19;0.98;;;0.95;;
9100;SDS011;4586;52.518;13.486;2022-07-29T08:53:20;3.15;;;1.50;;
9100;SDS011;4586;52.518;13.486;2022-07-29T08:57:21;1.27;;;1.17;;
9100;SDS011;4586;52.518;13.486;2022-07-29T09:01:24;0.98;;;0.88;;
9100;SDS011;4586;52.518;13.486;2022-07-29T09:05:25;1.60;;;1.05;;
9100;SDS011;4586;52.518;13.486;2022-07-29T09:09:27;1.52;;;0.93;;
9100;SDS011;4586;52.518;13.486;2022-07-29T09:13:28;1.10;;;0.88;;
9100;SDS011;4586;52.518;13.486;2022-07-29T09:17:45;1.92;;;1.30;;
9100;SDS011;4586;52.518;13.486;2022-07-29T09:21:46;1.75;;;1.10;;
9100;SDS011;4586;52.518;13.486;2022-07-29T09:25:47;2.65;;;0.90;;
9100;SDS011;4586;52.518;13.486;2022-07-29T09:30:01;1.15;;;0.80;;
9100;SDS011;4586;52.518;13.486;2022-07-29T09:34:03;1.08;;;0.85;;
9100;SDS011;4586;52.518;13.486;2022-07-29T09:38:11;1.45;;;0.90;;
9100;SDS011;4586;52.518;13.486;2022-07-29T09:42:12;1.05;;;0.88;;
9100;SDS011;4586;52.518;13.486;2022-07-29T09:46:13;1.20;;;1.00;;
9100;SDS011;4586;52.518;13.486;2022-07-29T09:50:15;1.38;;;1.00;;
9100;SDS011;4586;52.518;13.486;2022-07-29T09:54:25;1.45;;;0.90;;
9100;SDS011;4586;52.518;13.486;2022-07-29T09:58:27;1.00;;;0.90;;
9100;SDS011;4586;52.518;13.486;2022-07-29T10:02:29;0.82;;;0.82;;
9100;SDS011;4586;52.518;13.486;2022-07-29T10:06:30;0.98;;;0.90;;
9100;SDS011;4586;52.518;13.486;2022-07-29T10:10:32;1.65;;;1.00;;
9100;SDS011;4586;52.518;13.486;2022-07-29T10:14:33;1.70;;;0.80;;
9100;SDS011;4586;52.518;13.486;2022-07-29T10:18:34;4.50;;;0.80;;
9100;SDS011;4586;52.518;13.486;2022-07-29T10:22:36;1.83;;;0.88;;
9100;SDS011;4586;52.518;13.486;2022-07-29T10:26:37;0.93;;;0.85;;
9100;SDS011;4586;52.518;13.486;2022-07-29T10:30:38;0.52;;;0.52;;
9100;SDS011;4586;52.518;13.486;2022-07-29T10:38:48;0.80;;;0.80;;
9100;SDS011;4586;52.518;13.486;2022-07-29T10:42:52;0.93;;;0.75;;
9100;SDS011;4586;52.518;13.486;2022-07-29T10:46:54;0.70;;;0.68;;
9100;SDS011;4586;52.518;13.486;2022-07-29T10:50:56;0.90;;;0.75;;
9100;SDS011;4586;52.518;13.486;2022-07-29T10:54:57;0.68;;;0.68;;
9100;SDS011;4586;52.518;13.486;2022-07-29T11:07:39;1.52;;;1.30;;
9100;SDS011;4586;52.518;13.486;2022-07-29T11:11:40;0.73;;;0.73;;
9100;SDS011;4586;52.518;13.486;2022-07-29T11:15:54;1.20;;;0.90;;
9100;SDS011;4586;52.518;13.486;2022-07-29T11:20:30;0.85;;;0.80;;
9100;SDS011;4586;52.518;13.486;2022-07-29T11:24:21;1.48;;;1.02;;
9100;SDS011;4586;52.518;13.486;2022-07-29T11:28:22;6.85;;;0.95;;
9100;SDS011;4586;52.518;13.486;2022-07-29T11:32:24;1.08;;;0.98;;
9100;SDS011;4586;52.518;13.486;2022-07-29T11:36:25;0.82;;;0.73;;
9100;SDS011;4586;52.518;13.486;2022-07-29T11:40:26;1.10;;;1.00;;
9100;SDS011;4586;52.518;13.486;2022-07-29T11:48:46;1.45;;;1.05;;
9100;SDS011;4586;52.518;13.486;2022-07-29T11:52:48;0.80;;;0.80;;
9100;SDS011;4586;52.518;13.486;2022-07-29T11:56:49;2.10;;;1.05;;
9100;SDS011;4586;52.518;13.486;2022-07-29T12:00:50;1.25;;;1.15;;
9100;SDS011;4586;52.518;13.486;2022-07-29T12:04:51;1.10;;;1.00;;
9100;SDS011;4586;52.518;13.486;2022-07-29T12:08:52;2.00;;;1.27;;
9100;SDS011;4586;52.518;13.486;2022-07-29T12:12:53;5.32;;;1.70;;
9100;SDS011;4586;52.518;13.486;2022-07-29T12:16:54;2.60;;;1.38;;
9100;SDS011;4586;52.518;13.486;2022-07-29T12:20:59;2.50;;;1.88;;
9100;SDS011;4586;52.518;13.486;2022-07-29T12:25:00;1.52;;;1.42;;
9100;SDS011;4586;52.518;13.486;2022-07-29T12:29:02;3.10;;;1.75;;
9100;SDS011;4586;52.518;13.486;2022-07-29T12:33:09;3.00;;;1.38;;
9100;SDS011;4586;52.518;13.486;2022-07-29T12:37:10;1.60;;;1.50;;
9100;SDS011;4586;52.518;13.486;2022-07-29T12:41:12;1.30;;;1.20;;
9100;SDS011;4586;52.518;13.486;2022-07-29T12:45:13;3.20;;;1.50;;
9100;SDS011;4586;52.518;13.486;2022-07-29T12:49:23;1.80;;;1.17;;
9100;SDS011;4586;52.518;13.486;2022-07-29T12:53:24;2.97;;;1.52;;
9100;SDS011;4586;52.518;13.486;2022-07-29T12:57:26;1.92;;;1.40;;
9100;SDS011;4586;52.518;13.486;2022-07-29T13:01:27;1.55;;;1.20;;
9100;SDS011;4586;52.518;13.486;2022-07-29T13:05:40;2.65;;;1.20;;
9100;SDS011;4586;52.518;13.486;2022-07-29T13:09:42;5.10;;;1.50;;
9100;SDS011;4586;52.518;13.486;2022-07-29T13:13:50;4.22;;;1.80;;
9100;SDS011;4586;52.518;13.486;2022-07-29T13:17:51;1.83;;;1.30;;
9100;SDS011;4586;52.518;13.486;2022-07-29T13:21:52;6.85;;;2.90;;
9100;SDS011;4586;52.518;13.486;2022-07-29T13:25:53;1.65;;;1.55;;
9100;SDS011;4586;52.518;13.486;2022-07-29T13:29:54;2.20;;;1.75;;
9100;SDS011;4586;52.518;13.486;2022-07-29T13:33:55;1.60;;;1.50;;
9100;SDS011;4586;52.518;13.486;2022-07-29T13:37:56;2.47;;;1.30;;
9100;SDS011;4586;52.518;13.486;2022-07-29T13:41:57;1.38;;;1.27;;
9100;SDS011;4586;52.518;13.486;2022-07-29T13:45:58;4.07;;;1.27;;
9100;SDS011;4586;52.518;13.486;2022-07-29T13:50:00;1.45;;;1.15;;
9100;SDS011;4586;52.518;13.486;2022-07-29T13:54:01;1.98;;;1.65;;
9100;SDS011;4586;52.518;13.486;2022-07-29T13:58:02;1.52;;;1.42;;
9100;SDS011;4586;52.518;13.486;2022-07-29T14:02:03;1.40;;;1.30;;
9100;SDS011;4586;52.518;13.486;2022-07-29T14:06:04;1.33;;;1.30;;
9100;SDS011;4586;52.518;13.486;2022-07-29T14:10:05;1.90;;;1.70;;
9100;SDS011;4586;52.518;13.486;2022-07-29T14:14:06;1.77;;;1.67;;
9100;SDS011;4586;52.518;13.486;2022-07-29T14:18:07;3.05;;;1.55;;
9100;SDS011;4586;52.518;13.486;2022-07-29T14:22:08;2.17;;;1.60;;
9100;SDS011;4586;52.518;13.486;2022-07-29T14:26:09;3.10;;;2.10;;
9100;SDS011;4586;52.518;13.486;2022-07-29T14:30:11;1.92;;;1.52;;
9100;SDS011;4586;52.518;13.486;2022-07-29T14:34:12;1.65;;;1.52;;
9100;SDS011;4586;52.518;13.486;2022-07-29T14:38:13;1.55;;;1.45;;
9100;SDS011;4586;52.518;13.486;2022-07-29T14:42:14;1.98;;;1.48;;
9100;SDS011;4586;52.518;13.486;2022-07-29T14:46:15;3.65;;;1.45;;
9100;SDS011;4586;52.518;13.486;2022-07-29T14:50:16;1.70;;;1.40;;
9100;SDS011;4586;52.518;13.486;2022-07-29T14:54:17;3.70;;;1.65;;
9100;SDS011;4586;52.518;13.486;2022-07-29T14:58:18;1.45;;;1.35;;
9100;SDS011;4586;52.518;13.486;2022-07-29T15:02:19;2.60;;;1.77;;
9100;SDS011;4586;52.518;13.486;2022-07-29T15:06:20;4.57;;;2.08;;
9100;SDS011;4586;52.518;13.486;2022-07-29T15:10:21;4.35;;;1.55;;
9100;SDS011;4586;52.518;13.486;2022-07-29T15:14:22;1.35;;;1.25;;
9100;SDS011;4586;52.518;13.486;2022-07-29T15:18:23;1.85;;;1.60;;
9100;SDS011;4586;52.518;13.486;2022-07-29T15:22:24;1.63;;;1.52;;
9100;SDS011;4586;52.518;13.486;2022-07-29T15:26:25;2.15;;;1.60;;
9100;SDS011;4586;52.518;13.486;2022-07-29T15:30:26;1.90;;;1.75;;
9100;SDS011;4586;52.518;13.486;2022-07-29T15:34:27;1.95;;;1.60;;
9100;SDS011;4586;52.518;13.486;2022-07-29T15:38:28;1.67;;;1.55;;
9100;SDS011;4586;52.518;13.486;2022-07-29T15:42:29;2.42;;;1.50;;
9100;SDS011;4586;52.518;13.486;2022-07-29T15:46:30;1.50;;;1.10;;
9100;SDS011;4586;52.518;13.486;2022-07-29T15:50:31;1.75;;;1.42;;
9100;SDS011;4586;52.518;13.486;2022-07-29T15:54:32;5.07;;;1.52;;
9100;SDS011;4586;52.518;13.486;2022-07-29T15:58:34;2.88;;;1.55;;
9100;SDS011;4586;52.518;13.486;2022-07-29T16:02:35;1.55;;;1.08;;
9100;SDS011;4586;52.518;13.486;2022-07-29T16:06:36;1.17;;;1.13;;
9100;SDS011;4586;52.518;13.486;2022-07-29T16:10:37;1.83;;;1.20;;
9100;SDS011;4586;52.518;13.486;2022-07-29T16:14:38;1.55;;;1.40;;
9100;SDS011;4586;52.518;13.486;2022-07-29T16:18:39;3.08;;;1.25;;
9100;SDS011;4586;52.518;13.486;2022-07-29T16:22:40;1.20;;;1.10;;
9100;SDS011;4586;52.518;13.486;2022-07-29T16:26:40;1.83;;;1.33;;
9100;SDS011;4586;52.518;13.486;2022-07-29T16:30:41;2.28;;;1.10;;
9100;SDS011;4586;52.518;13.486;2022-07-29T16:34:42;2.88;;;1.50;;
9100;SDS011;4586;52.518;13.486;2022-07-29T16:38:44;1.33;;;1.23;;
9100;SDS011;4586;52.518;13.486;2022-07-29T16:42:45;1.98;;;1.20;;
9100;SDS011;4586;52.518;13.486;2022-07-29T16:46:46;2.50;;;1.33;;
9100;SDS011;4586;52.518;13.486;2022-07-29T16:50:47;1.75;;;1.10;;
9100;SDS011;4586;52.518;13.486;2022-07-29T16:54:48;1.50;;;1.10;;
9100;SDS011;4586;52.518;13.486;2022-07-29T16:58:49;1.15;;;1.08;;
9100;SDS011;4586;52.518;13.486;2022-07-29T17:02:50;2.08;;;1.48;;
9100;SDS011;4586;52.518;13.486;2022-07-29T17:06:50;2.53;;;1.70;;
9100;SDS011;4586;52.518;13.486;2022-07-29T17:10:51;1.35;;;1.25;;
9100;SDS011;4586;52.518;13.486;2022-07-29T17:14:52;3.22;;;1.38;;
9100;SDS011;4586;52.518;13.486;2022-07-29T17:18:54;2.13;;;1.27;;
9100;SDS011;4586;52.518;13.486;2022-07-29T17:22:55;1.13;;;1.02;;
9100;SDS011;4586;52.518;13.486;2022-07-29T17:26:56;1.98;;;1.02;;
9100;SDS011;4586;52.518;13.486;2022-07-29T17:30:57;1.88;;;1.48;;
9100;SDS011;4586;52.518;13.486;2022-07-29T17:34:58;1.58;;;1.10;;
9100;SDS011;4586;52.518;13.486;2022-07-29T17:39:04;1.80;;;1.08;;
9100;SDS011;4586;52.518;13.486;2022-07-29T17:43:05;1.02;;;0.95;;
9100;SDS011;4586;52.518;13.486;2022-07-29T17:47:06;1.27;;;1.05;;
9100;SDS011;4586;52.518;13.486;2022-07-29T17:51:07;1.48;;;1.38;;
9100;SDS011;4586;52.518;13.486;2022-07-29T17:55:08;1.17;;;1.05;;
9100;SDS011;4586;52.518;13.486;2022-07-29T17:59:09;1.08;;;1.00;;
9100;SDS011;4586;52.518;13.486;2022-07-29T18:03:10;4.05;;;0.93;;
9100;SDS011;4586;52.518;13.486;2022-07-29T18:07:11;1.38;;;1.08;;
9100;SDS011;4586;52.518;13.486;2022-07-29T18:11:12;1.45;;;1.17;;
9100;SDS011;4586;52.518;13.486;2022-07-29T18:15:13;2.28;;;1.40;;
9100;SDS011;4586;52.518;13.486;2022-07-29T18:19:14;1.35;;;1.25;;
9100;SDS011;4586;52.518;13.486;2022-07-29T18:23:15;4.05;;;1.70;;
9100;SDS011;4586;52.518;13.486;2022-07-29T18:27:16;2.53;;;1.85;;
9100;SDS011;4586;52.518;13.486;2022-07-29T18:31:17;3.25;;;2.08;;
9100;SDS011;4586;52.518;13.486;2022-07-29T18:35:18;5.50;;;1.80;;
9100;SDS011;4586;52.518;13.486;2022-07-29T18:39:19;2.60;;;2.00;;
9100;SDS011;4586;52.518;13.486;2022-07-29T18:43:20;2.80;;;1.67;;
9100;SDS011;4586;52.518;13.486;2022-07-29T18:47:21;1.75;;;1.45;;
9100;SDS011;4586;52.518;13.486;2022-07-29T18:51:22;1.80;;;1.70;;
9100;SDS011;4586;52.518;13.486;2022-07-29T18:55:23;2.10;;;1.50;;
9100;SDS011;4586;52.518;13.486;2022-07-29T18:59:24;1.83;;;1.38;;
9100;SDS011;4586;52.518;13.486;2022-07-29T19:03:25;2.05;;;1.38;;
9100;SDS011;4586;52.518;13.486;2022-07-29T19:07:26;1.30;;;1.02;;
9100;SDS011;4586;52.518;13.486;2022-07-29T19:11:27;1.83;;;1.40;;
9100;SDS011;4586;52.518;13.486;2022-07-29T19:15:28;1.27;;;1.17;;
9100;SDS011;4586;52.518;13.486;2022-07-29T19:19:29;1.45;;;1.20;;
9100;SDS011;4586;52.518;13.486;2022-07-29T19:23:30;2.65;;;1.02;;
9100;SDS011;4586;52.518;13.486;2022-07-29T19:27:32;1.05;;;1.00;;
9100;SDS011;4586;52.518;13.486;2022-07-29T19:31:37;1.52;;;0.95;;
9100;SDS011;4586;52.518;13.486;2022-07-29T19:35:38;2.13;;;1.30;;
9100;SDS011;4586;52.518;13.486;2022-07-29T19:39:41;1.27;;;1.17;;
9100;SDS011;4586;52.518;13.486;2022-07-29T19:43:42;1.42;;;1.20;;
9100;SDS011;4586;52.518;13.486;2022-07-29T19:47:47;1.30;;;1.15;;
9100;SDS011;4586;52.518;13.486;2022-07-29T19:51:48;2.75;;;1.48;;
9100;SDS011;4586;52.518;13.486;2022-07-29T19:55:49;5.43;;;3.40;;
9100;SDS011;4586;52.518;13.486;2022-07-29T19:59:50;9.77;;;7.07;;
9100;SDS011;4586;52.518;13.486;2022-07-29T20:03:51;6.55;;;4.95;;
9100;SDS011;4586;52.518;13.486;2022-07-29T20:07:52;7.80;;;4.35;;
9100;SDS011;4586;52.518;13.486;2022-07-29T20:11:53;1.67;;;1.35;;
9100;SDS011;4586;52.518;13.486;2022-07-29T20:15:54;2.30;;;1.48;;
9100;SDS011;4586;52.518;13.486;2022-07-29T20:19:55;3.30;;;1.70;;
9100;SDS011;4586;52.518;13.486;2022-07-29T20:23:56;1.30;;;1.20;;
9100;SDS011;4586;52.518;13.486;2022-07-29T20:27:57;1.38;;;1.23;;
9100;SDS011;4586;52.518;13.486;2022-07-29T20:31:58;2.60;;;1.35;;
9100;SDS011;4586;52.518;13.486;2022-07-29T20:35:59;1.63;;;1.20;;
9100;SDS011;4586;52.518;13.486;2022-07-29T20:40:00;2.13;;;1.30;;
9100;SDS011;4586;52.518;13.486;2022-07-29T20:44:01;2.47;;;1.30;;
9100;SDS011;4586;52.518;13.486;2022-07-29T20:48:03;2.63;;;1.30;;
9100;SDS011;4586;52.518;13.486;2022-07-29T20:52:04;2.30;;;1.45;;
9100;SDS011;4586;52.518;13.486;2022-07-29T20:56:05;4.50;;;1.58;;
9100;SDS011;4586;52.518;13.486;2022-07-29T21:00:07;1.50;;;1.23;;
9100;SDS011;4586;52.518;13.486;2022-07-29T21:04:08;2.28;;;1.20;;
9100;SDS011;4586;52.518;13.486;2022-07-29T21:08:09;1.30;;;1.20;;
9100;SDS011;4586;52.518;13.486;2022-07-29T21:12:10;1.30;;;1.20;;
9100;SDS011;4586;52.518;13.486;2022-07-29T21:16:11;1.88;;;1.33;;
9100;SDS011;4586;52.518;13.486;2022-07-29T21:20:16;2.10;;;1.42;;
9100;SDS011;4586;52.518;13.486;2022-07-29T21:24:17;1.60;;;1.20;;
9100;SDS011;4586;52.518;13.486;2022-07-29T21:28:18;2.28;;;1.33;;
9100;SDS011;4586;52.518;13.486;2022-07-29T21:32:19;1.80;;;1.23;;
9100;SDS011;4586;52.518;13.486;2022-07-29T21:36:20;1.42;;;1.05;;
9100;SDS011;4586;52.518;13.486;2022-07-29T21:40:21;2.50;;;1.00;;
9100;SDS011;4586;52.518;13.486;2022-07-29T21:44:22;1.63;;;1.20;;
9100;SDS011;4586;52.518;13.486;2022-07-29T21:48:24;1.50;;;1.40;;
9100;SDS011;4586;52.518;13.486;2022-07-29T21:52:25;1.58;;;1.33;;
9100;SDS011;4586;52.518;13.486;2022-07-29T21:56:27;2.70;;;1.35;;
9100;SDS011;4586;52.518;13.486;2022-07-29T22:00:28;2.00;;;1.23;;
9100;SDS011;4586;52.518;13.486;2022-07-29T22:04:30;1.45;;;1.17;;
9100;SDS011;4586;52.518;13.486;2022-07-29T22:08:31;3.08;;;1.40;;
9100;SDS011;4586;52.518;13.486;2022-07-29T22:12:32;3.13;;;1.05;;
9100;SDS011;4586;52.518;13.486;2022-07-29T22:16:33;1.63;;;1.30;;
9100;SDS011;4586;52.518;13.486;2022-07-29T22:20:34;1.30;;;1.13;;
9100;SDS011;4586;52.518;13.486;2022-07-29T22:24:34;3.83;;;1.33;;
9100;SDS011;4586;52.518;13.486;2022-07-29T22:28:35;1.40;;;1.30;;
9100;SDS011;4586;52.518;13.486;2022-07-29T22:32:36;1.13;;;1.02;;
9100;SDS011;4586;52.518;13.486;2022-07-29T22:36:38;1.38;;;1.20;;
9100;SDS011;4586;52.518;13.486;2022-07-29T22:40:39;1.55;;;1.45;;
9100;SDS011;4586;52.518;13.486;2022-07-29T22:44:40;0.98;;;0.90;;
9100;SDS011;4586;52.518;13.486;2022-07-29T22:48:41;1.30;;;1.20;;
9100;SDS011;4586;52.518;13.486;2022-07-29T22:52:42;2.53;;;1.30;;
9100;SDS011;4586;52.518;13.486;2022-07-29T22:56:43;1.35;;;1.25;;
9100;SDS011;4586;52.518;13.486;2022-07-29T23:00:44;3.55;;;1.20;;
9100;SDS011;4586;52.518;13.486;2022-07-29T23:04:45;4.65;;;1.10;;
9100;SDS011;4586;52.518;13.486;2022-07-29T23:08:46;2.72;;;1.25;;
9100;SDS011;4586;52.518;13.486;2022-07-29T23:12:47;1.85;;;1.42;;
9100;SDS011;4586;52.518;13.486;2022-07-29T23:16:48;1.75;;;1.13;;
9100;SDS011;4586;52.518;13.486;2022-07-29T23:20:49;1.50;;;1.30;;
9100;SDS011;4586;52.518;13.486;2022-07-29T23:24:50;1.27;;;1.08;;
9100;SDS011;4586;52.518;13.486;2022-07-29T23:28:51;1.42;;;1.33;;
9100;SDS011;4586;52.518;13.486;2022-07-29T23:32:52;1.15;;;1.10;;
9100;SDS011;4586;52.518;13.486;2022-07-29T23:36:53;1.90;;;1.10;;
9100;SDS011;4586;52.518;13.486;2022-07-29T23:40:54;1.15;;;1.05;;
9100;SDS011;4586;52.518;13.486;2022-07-29T23:44:55;1.38;;;1.02;;
9100;SDS011;4586;52.518;13.486;2022-07-29T23:48:56;1.80;;;1.30;;
9100;SDS011;4586;52.518;13.486;2022-07-29T23:52:57;3.25;;;1.30;;
9100;SDS011;4586;52.518;13.486;2022-07-29T23:56:58;2.05;;;1.30;;
